sensor_id;sensor_type;location;lat;lon;timestamp;temperature;humidity
8896;DHT22;4484;48.928;10.066;2024-01-06T00:01:14;2.90;99.90
8896;DHT22;4484;48.928;10.066;2024-01-06T00:03:42;2.90;99.90
8896;DHT22;4484;48.928;10.066;2024-01-06T00:06:13;2.90;99.90
8896;DHT22;4484;48.928;10.066;2024-01-06T00:08:40;2.90;99.90
8896;DHT22;4484;48.928;10.066;2024-01-06T00:11:07;2.90;99.90
8896;DHT22;4484;48.928;10.066;2024-01-06T00:13:34;3.00;99.90
8896;DHT22;4484;48.928;10.066;2024-01-06T00:16:01;3.00;99.90
8896;DHT22;4484;48.928;10.066;2024-01-06T00:18:28;3.00;99.90
8896;DHT22;4484;48.928;10.066;2024-01-06T00:20:55;3.00;99.90
8896;DHT22;4484;48.928;10.066;2024-01-06T00:23:22;3.00;99.90
8896;DHT22;4484;48.928;10.066;2024-01-06T00:25:50;3.00;99.90
8896;DHT22;4484;48.928;10.066;2024-01-06T00:28:16;3.00;99.90
8896;DHT22;4484;48.928;10.066;2024-01-06T00:30:43;3.00;99.90
8896;DHT22;4484;48.928;10.066;2024-01-06T00:33:11;3.00;99.90
8896;DHT22;4484;48.928;10.066;2024-01-06T00:35:39;3.00;99.90
8896;DHT22;4484;48.928;10.066;2024-01-06T00:38:05;3.00;99.90
8896;DHT22;4484;48.928;10.066;2024-01-06T00:40:32;3.00;99.90
8896;DHT22;4484;48.928;10.066;2024-01-06T00:42:59;3.00;99.90
8896;DHT22;4484;48.928;10.066;2024-01-06T00:45:26;2.90;99.90
8896;DHT22;4484;48.928;10.066;2024-01-06T00:47:53;2.90;99.90
8896;DHT22;4484;48.928;10.066;2024-01-06T00:50:20;2.90;99.90
8896;DHT22;4484;48.928;10.066;2024-01-06T00:52:47;2.90;99.90
8896;DHT22;4484;48.928;10.066;2024-01-06T00:55:13;2.90;99.90
8896;DHT22;4484;48.928;10.066;2024-01-06T00:57:40;2.90;99.90
8896;DHT22;4484;48.928;10.066;2024-01-06T01:00:07;2.80;99.90
8896;DHT22;4484;48.928;10.066;2024-01-06T01:02:34;2.80;99.90
8896;DHT22;4484;48.928;10.066;2024-01-06T01:05:05;2.80;99.90
8896;DHT22;4484;48.928;10.066;2024-01-06T01:07:34;2.80;99.90
8896;DHT22;4484;48.928;10.066;2024-01-06T01:10:01;2.80;99.90
8896;DHT22;4484;48.928;10.066;2024-01-06T01:12:28;2.80;99.90
8896;DHT22;4484;48.928;10.066;2024-01-06T01:14:55;2.80;99.90
8896;DHT22;4484;48.928;10.066;2024-01-06T01:17:22;2.80;99.90
8896;DHT22;4484;48.928;10.066;2024-01-06T01:19:49;2.80;99.90
8896;DHT22;4484;48.928;10.066;2024-01-06T01:22:16;2.80;99.90
8896;DHT22;4484;48.928;10.066;2024-01-06T01:24:43;2.80;99.90
8896;DHT22;4484;48.928;10.066;2024-01-06T01:27:10;2.80;99.90
8896;DHT22;4484;48.928;10.066;2024-01-06T01:29:37;2.80;99.90
8896;DHT22;4484;48.928;10.066;2024-01-06T01:32:04;2.80;99.90
8896;DHT22;4484;48.928;10.066;2024-01-06T01:34:31;2.80;99.90
8896;DHT22;4484;48.928;10.066;2024-01-06T01:36:59;2.80;99.90
8896;DHT22;4484;48.928;10.066;2024-01-06T01:39:26;2.80;99.90
8896;DHT22;4484;48.928;10.066;2024-01-06T01:41:53;2.80;99.90
8896;DHT22;4484;48.928;10.066;2024-01-06T01:44:20;2.80;99.90
8896;DHT22;4484;48.928;10.066;2024-01-06T01:46:47;2.80;99.90
8896;DHT22;4484;48.928;10.066;2024-01-06T01:49:14;2.70;99.90
8896;DHT22;4484;48.928;10.066;2024-01-06T01:51:42;2.70;99.90
8896;DHT22;4484;48.928;10.066;2024-01-06T01:54:11;2.80;99.90
8896;DHT22;4484;48.928;10.066;2024-01-06T01:56:39;2.70;99.90
8896;DHT22;4484;48.928;10.066;2024-01-06T01:59:11;2.70;99.90
8896;DHT22;4484;48.928;10.066;2024-01-06T02:01:39;2.70;99.90
8896;DHT22;4484;48.928;10.066;2024-01-06T02:04:06;2.70;99.90
8896;DHT22;4484;48.928;10.066;2024-01-06T02:06:33;2.70;99.90
8896;DHT22;4484;48.928;10.066;2024-01-06T02:09:00;2.70;99.90
8896;DHT22;4484;48.928;10.066;2024-01-06T02:11:27;2.70;99.90
8896;DHT22;4484;48.928;10.066;2024-01-06T02:13:54;2.80;99.90
8896;DHT22;4484;48.928;10.066;2024-01-06T02:16:20;2.70;99.90
8896;DHT22;4484;48.928;10.066;2024-01-06T02:18:47;2.80;99.90
8896;DHT22;4484;48.928;10.066;2024-01-06T02:21:14;2.80;99.90
8896;DHT22;4484;48.928;10.066;2024-01-06T02:23:42;2.70;99.90
8896;DHT22;4484;48.928;10.066;2024-01-06T02:26:10;2.70;99.90
8896;DHT22;4484;48.928;10.066;2024-01-06T02:28:36;2.70;99.90
8896;DHT22;4484;48.928;10.066;2024-01-06T02:31:03;2.70;99.90
8896;DHT22;4484;48.928;10.066;2024-01-06T02:33:30;2.70;99.90
8896;DHT22;4484;48.928;10.066;2024-01-06T02:35:57;2.70;99.90
8896;DHT22;4484;48.928;10.066;2024-01-06T02:38:24;2.70;99.90
8896;DHT22;4484;48.928;10.066;2024-01-06T02:40:51;2.60;99.90
8896;DHT22;4484;48.928;10.066;2024-01-06T02:43:18;2.60;99.90
8896;DHT22;4484;48.928;10.066;2024-01-06T02:45:45;2.60;99.90
8896;DHT22;4484;48.928;10.066;2024-01-06T02:48:13;2.70;99.90
8896;DHT22;4484;48.928;10.066;2024-01-06T02:50:40;2.70;99.90
8896;DHT22;4484;48.928;10.066;2024-01-06T02:53:07;2.70;99.90
8896;DHT22;4484;48.928;10.066;2024-01-06T02:55:34;2.70;99.90
8896;DHT22;4484;48.928;10.066;2024-01-06T02:58:00;2.70;99.90
8896;DHT22;4484;48.928;10.066;2024-01-06T03:00:27;2.70;99.90
8896;DHT22;4484;48.928;10.066;2024-01-06T03:02:54;2.70;99.90
8896;DHT22;4484;48.928;10.066;2024-01-06T03:05:21;2.70;99.90
8896;DHT22;4484;48.928;10.066;2024-01-06T03:07:48;2.70;99.90
8896;DHT22;4484;48.928;10.066;2024-01-06T03:10:15;2.70;99.90
8896;DHT22;4484;48.928;10.066;2024-01-06T03:12:41;2.70;99.90
8896;DHT22;4484;48.928;10.066;2024-01-06T03:15:09;2.70;99.90
8896;DHT22;4484;48.928;10.066;2024-01-06T03:17:36;2.70;99.90
8896;DHT22;4484;48.928;10.066;2024-01-06T03:20:04;2.70;99.90
8896;DHT22;4484;48.928;10.066;2024-01-06T03:22:31;2.70;99.90
8896;DHT22;4484;48.928;10.066;2024-01-06T03:24:57;2.70;99.90
8896;DHT22;4484;48.928;10.066;2024-01-06T03:27:24;2.60;99.90
8896;DHT22;4484;48.928;10.066;2024-01-06T03:29:51;2.60;99.90
8896;DHT22;4484;48.928;10.066;2024-01-06T03:32:18;2.60;99.90
8896;DHT22;4484;48.928;10.066;2024-01-06T03:34:45;2.60;99.90
8896;DHT22;4484;48.928;10.066;2024-01-06T03:37:12;2.60;99.90
8896;DHT22;4484;48.928;10.066;2024-01-06T03:39:38;2.60;99.90
8896;DHT22;4484;48.928;10.066;2024-01-06T03:42:05;2.60;99.90
8896;DHT22;4484;48.928;10.066;2024-01-06T03:44:32;2.60;99.90
8896;DHT22;4484;48.928;10.066;2024-01-06T03:47:00;2.60;99.90
8896;DHT22;4484;48.928;10.066;2024-01-06T03:49:27;2.60;99.90
8896;DHT22;4484;48.928;10.066;2024-01-06T03:51:54;2.60;99.90
8896;DHT22;4484;48.928;10.066;2024-01-06T03:54:21;2.60;99.90
8896;DHT22;4484;48.928;10.066;2024-01-06T03:56:49;2.60;99.90
8896;DHT22;4484;48.928;10.066;2024-01-06T03:59:16;2.50;99.90
8896;DHT22;4484;48.928;10.066;2024-01-06T04:01:43;2.50;99.90
8896;DHT22;4484;48.928;10.066;2024-01-06T04:04:10;2.50;99.90
8896;DHT22;4484;48.928;10.066;2024-01-06T04:06:37;2.50;99.90
8896;DHT22;4484;48.928;10.066;2024-01-06T04:09:04;2.50;99.90
8896;DHT22;4484;48.928;10.066;2024-01-06T04:11:31;2.40;99.90
8896;DHT22;4484;48.928;10.066;2024-01-06T04:13:58;2.40;99.90
8896;DHT22;4484;48.928;10.066;2024-01-06T04:16:26;2.40;99.90
8896;DHT22;4484;48.928;10.066;2024-01-06T04:18:54;2.40;99.90
8896;DHT22;4484;48.928;10.066;2024-01-06T04:21:21;2.40;99.90
8896;DHT22;4484;48.928;10.066;2024-01-06T04:23:49;2.40;99.90
8896;DHT22;4484;48.928;10.066;2024-01-06T04:26:16;2.40;99.90
8896;DHT22;4484;48.928;10.066;2024-01-06T04:28:42;2.30;99.90
8896;DHT22;4484;48.928;10.066;2024-01-06T04:31:09;2.30;99.90
8896;DHT22;4484;48.928;10.066;2024-01-06T04:33:38;2.30;99.90
8896;DHT22;4484;48.928;10.066;2024-01-06T04:36:07;2.20;99.90
8896;DHT22;4484;48.928;10.066;2024-01-06T04:38:34;2.30;99.90
8896;DHT22;4484;48.928;10.066;2024-01-06T04:41:01;2.20;99.90
8896;DHT22;4484;48.928;10.066;2024-01-06T04:43:28;2.30;99.90
8896;DHT22;4484;48.928;10.066;2024-01-06T04:45:55;2.30;99.90
8896;DHT22;4484;48.928;10.066;2024-01-06T04:48:24;2.30;99.90
8896;DHT22;4484;48.928;10.066;2024-01-06T04:50:51;2.30;99.90
8896;DHT22;4484;48.928;10.066;2024-01-06T04:53:18;2.30;99.90
8896;DHT22;4484;48.928;10.066;2024-01-06T04:55:44;2.30;99.90
8896;DHT22;4484;48.928;10.066;2024-01-06T04:58:11;2.30;99.90
8896;DHT22;4484;48.928;10.066;2024-01-06T05:00:38;2.30;99.90
8896;DHT22;4484;48.928;10.066;2024-01-06T05:03:05;2.40;99.90
8896;DHT22;4484;48.928;10.066;2024-01-06T05:05:32;2.40;99.90
8896;DHT22;4484;48.928;10.066;2024-01-06T05:07:58;2.40;99.90
8896;DHT22;4484;48.928;10.066;2024-01-06T05:10:26;2.40;99.90
8896;DHT22;4484;48.928;10.066;2024-01-06T05:12:53;2.40;99.90
8896;DHT22;4484;48.928;10.066;2024-01-06T05:15:20;2.40;99.90
8896;DHT22;4484;48.928;10.066;2024-01-06T05:17:47;2.30;99.90
8896;DHT22;4484;48.928;10.066;2024-01-06T05:20:14;2.30;99.90
8896;DHT22;4484;48.928;10.066;2024-01-06T05:22:41;2.30;99.90
8896;DHT22;4484;48.928;10.066;2024-01-06T05:25:08;2.40;99.90
8896;DHT22;4484;48.928;10.066;2024-01-06T05:27:35;2.40;99.90
8896;DHT22;4484;48.928;10.066;2024-01-06T05:30:02;2.40;99.90
8896;DHT22;4484;48.928;10.066;2024-01-06T05:32:29;2.40;99.90
8896;DHT22;4484;48.928;10.066;2024-01-06T05:34:56;2.40;99.90
8896;DHT22;4484;48.928;10.066;2024-01-06T05:37:23;2.40;99.90
8896;DHT22;4484;48.928;10.066;2024-01-06T05:39:50;2.40;99.90
8896;DHT22;4484;48.928;10.066;2024-01-06T05:42:17;2.40;99.90
8896;DHT22;4484;48.928;10.066;2024-01-06T05:44:44;2.40;99.90
8896;DHT22;4484;48.928;10.066;2024-01-06T05:47:11;2.40;99.90
8896;DHT22;4484;48.928;10.066;2024-01-06T05:49:42;2.50;99.90
8896;DHT22;4484;48.928;10.066;2024-01-06T05:52:10;2.50;99.90
8896;DHT22;4484;48.928;10.066;2024-01-06T05:54:40;2.50;99.90
8896;DHT22;4484;48.928;10.066;2024-01-06T05:57:08;2.50;99.90
8896;DHT22;4484;48.928;10.066;2024-01-06T05:59:35;2.50;99.90
8896;DHT22;4484;48.928;10.066;2024-01-06T06:02:02;2.50;99.90
8896;DHT22;4484;48.928;10.066;2024-01-06T06:04:29;2.50;99.90
8896;DHT22;4484;48.928;10.066;2024-01-06T06:06:55;2.50;99.90
8896;DHT22;4484;48.928;10.066;2024-01-06T06:09:27;2.50;99.90
8896;DHT22;4484;48.928;10.066;2024-01-06T06:11:55;2.50;99.90
8896;DHT22;4484;48.928;10.066;2024-01-06T06:14:22;2.50;99.90
8896;DHT22;4484;48.928;10.066;2024-01-06T06:16:53;2.50;99.90
8896;DHT22;4484;48.928;10.066;2024-01-06T06:19:19;2.50;99.90
8896;DHT22;4484;48.928;10.066;2024-01-06T06:21:47;2.50;99.90
8896;DHT22;4484;48.928;10.066;2024-01-06T06:24:14;2.50;99.90
8896;DHT22;4484;48.928;10.066;2024-01-06T06:26:41;2.50;99.90
8896;DHT22;4484;48.928;10.066;2024-01-06T06:29:08;2.50;99.90
8896;DHT22;4484;48.928;10.066;2024-01-06T06:31:35;2.50;99.90
8896;DHT22;4484;48.928;10.066;2024-01-06T06:34:02;2.50;99.90
8896;DHT22;4484;48.928;10.066;2024-01-06T06:36:34;2.60;99.90
8896;DHT22;4484;48.928;10.066;2024-01-06T06:39:01;2.60;99.90
8896;DHT22;4484;48.928;10.066;2024-01-06T06:41:30;2.50;99.90
8896;DHT22;4484;48.928;10.066;2024-01-06T06:43:57;2.60;99.90
8896;DHT22;4484;48.928;10.066;2024-01-06T06:46:24;2.50;99.90
8896;DHT22;4484;48.928;10.066;2024-01-06T06:48:51;2.60;99.90
8896;DHT22;4484;48.928;10.066;2024-01-06T06:51:18;2.60;99.90
8896;DHT22;4484;48.928;10.066;2024-01-06T06:53:45;2.60;99.90
8896;DHT22;4484;48.928;10.066;2024-01-06T06:56:15;2.60;99.90
8896;DHT22;4484;48.928;10.066;2024-01-06T06:58:44;2.60;99.90
8896;DHT22;4484;48.928;10.066;2024-01-06T07:01:11;2.50;99.90
8896;DHT22;4484;48.928;10.066;2024-01-06T07:03:40;2.60;99.90
8896;DHT22;4484;48.928;10.066;2024-01-06T07:06:07;2.60;99.90
8896;DHT22;4484;48.928;10.066;2024-01-06T07:08:33;2.60;99.90
8896;DHT22;4484;48.928;10.066;2024-01-06T07:11:00;2.50;99.90
8896;DHT22;4484;48.928;10.066;2024-01-06T07:13:27;2.60;99.90
8896;DHT22;4484;48.928;10.066;2024-01-06T07:15:54;2.60;99.90
8896;DHT22;4484;48.928;10.066;2024-01-06T07:18:37;2.50;99.90
8896;DHT22;4484;48.928;10.066;2024-01-06T07:21:07;2.60;99.90
8896;DHT22;4484;48.928;10.066;2024-01-06T07:23:34;2.60;99.90
8896;DHT22;4484;48.928;10.066;2024-01-06T07:26:01;2.60;99.90
8896;DHT22;4484;48.928;10.066;2024-01-06T07:28:29;2.50;99.90
8896;DHT22;4484;48.928;10.066;2024-01-06T07:30:56;2.50;99.90
8896;DHT22;4484;48.928;10.066;2024-01-06T07:33:23;2.50;99.90
8896;DHT22;4484;48.928;10.066;2024-01-06T07:35:51;2.50;99.90
8896;DHT22;4484;48.928;10.066;2024-01-06T07:38:18;2.50;99.90
8896;DHT22;4484;48.928;10.066;2024-01-06T07:40:46;2.50;99.90
8896;DHT22;4484;48.928;10.066;2024-01-06T07:43:12;2.50;99.90
8896;DHT22;4484;48.928;10.066;2024-01-06T07:45:41;2.50;99.90
8896;DHT22;4484;48.928;10.066;2024-01-06T07:48:08;2.50;99.90
8896;DHT22;4484;48.928;10.066;2024-01-06T07:50:35;2.50;99.90
8896;DHT22;4484;48.928;10.066;2024-01-06T07:53:02;2.50;99.90
8896;DHT22;4484;48.928;10.066;2024-01-06T07:55:29;2.50;99.90
8896;DHT22;4484;48.928;10.066;2024-01-06T07:57:56;2.50;99.90
8896;DHT22;4484;48.928;10.066;2024-01-06T08:00:23;2.50;99.90
8896;DHT22;4484;48.928;10.066;2024-01-06T08:02:51;2.50;99.90
8896;DHT22;4484;48.928;10.066;2024-01-06T08:05:17;2.50;99.90
8896;DHT22;4484;48.928;10.066;2024-01-06T08:07:44;2.50;99.90
8896;DHT22;4484;48.928;10.066;2024-01-06T08:10:11;2.60;99.90
8896;DHT22;4484;48.928;10.066;2024-01-06T08:12:38;2.60;99.90
8896;DHT22;4484;48.928;10.066;2024-01-06T08:15:05;2.50;99.90
8896;DHT22;4484;48.928;10.066;2024-01-06T08:17:34;2.60;99.90
8896;DHT22;4484;48.928;10.066;2024-01-06T08:20:02;2.60;99.90
8896;DHT22;4484;48.928;10.066;2024-01-06T08:22:30;2.60;99.90
8896;DHT22;4484;48.928;10.066;2024-01-06T08:24:57;2.60;99.90
8896;DHT22;4484;48.928;10.066;2024-01-06T08:27:23;2.60;99.90
8896;DHT22;4484;48.928;10.066;2024-01-06T08:29:51;2.70;99.90
8896;DHT22;4484;48.928;10.066;2024-01-06T08:32:17;2.70;99.90
8896;DHT22;4484;48.928;10.066;2024-01-06T08:34:44;2.70;99.90
8896;DHT22;4484;48.928;10.066;2024-01-06T08:37:11;2.70;99.90
8896;DHT22;4484;48.928;10.066;2024-01-06T08:39:38;2.70;99.90
8896;DHT22;4484;48.928;10.066;2024-01-06T08:42:05;2.80;99.90
8896;DHT22;4484;48.928;10.066;2024-01-06T08:44:32;2.80;99.90
8896;DHT22;4484;48.928;10.066;2024-01-06T08:46:59;2.80;99.90
8896;DHT22;4484;48.928;10.066;2024-01-06T08:49:25;2.80;99.90
8896;DHT22;4484;48.928;10.066;2024-01-06T08:51:52;2.90;99.90
8896;DHT22;4484;48.928;10.066;2024-01-06T08:54:19;2.90;99.90
8896;DHT22;4484;48.928;10.066;2024-01-06T08:56:46;2.90;99.90
8896;DHT22;4484;48.928;10.066;2024-01-06T08:59:14;2.90;99.90
8896;DHT22;4484;48.928;10.066;2024-01-06T09:01:40;3.00;99.90
8896;DHT22;4484;48.928;10.066;2024-01-06T09:04:07;3.00;99.90
8896;DHT22;4484;48.928;10.066;2024-01-06T09:06:34;3.00;99.90
8896;DHT22;4484;48.928;10.066;2024-01-06T09:09:01;3.00;99.90
8896;DHT22;4484;48.928;10.066;2024-01-06T09:11:28;3.00;99.90
8896;DHT22;4484;48.928;10.066;2024-01-06T09:13:55;3.00;99.90
8896;DHT22;4484;48.928;10.066;2024-01-06T09:16:23;3.00;99.90
8896;DHT22;4484;48.928;10.066;2024-01-06T09:18:50;3.10;99.90
8896;DHT22;4484;48.928;10.066;2024-01-06T09:21:17;3.10;99.90
8896;DHT22;4484;48.928;10.066;2024-01-06T09:23:44;3.10;99.90
8896;DHT22;4484;48.928;10.066;2024-01-06T09:26:11;3.20;99.90
8896;DHT22;4484;48.928;10.066;2024-01-06T09:28:38;3.30;99.90
8896;DHT22;4484;48.928;10.066;2024-01-06T09:31:06;3.30;99.90
8896;DHT22;4484;48.928;10.066;2024-01-06T09:33:33;3.30;99.90
8896;DHT22;4484;48.928;10.066;2024-01-06T09:36:01;3.40;99.90
8896;DHT22;4484;48.928;10.066;2024-01-06T09:38:28;3.40;99.90
8896;DHT22;4484;48.928;10.066;2024-01-06T09:40:56;3.50;99.90
8896;DHT22;4484;48.928;10.066;2024-01-06T09:43:24;3.40;99.90
8896;DHT22;4484;48.928;10.066;2024-01-06T09:45:58;3.50;99.90
8896;DHT22;4484;48.928;10.066;2024-01-06T09:48:29;3.50;99.90
8896;DHT22;4484;48.928;10.066;2024-01-06T09:51:02;3.50;99.90
8896;DHT22;4484;48.928;10.066;2024-01-06T09:53:33;3.50;99.90
8896;DHT22;4484;48.928;10.066;2024-01-06T09:56:04;3.50;99.90
8896;DHT22;4484;48.928;10.066;2024-01-06T09:58:31;3.50;99.90
8896;DHT22;4484;48.928;10.066;2024-01-06T10:01:01;3.50;99.90
8896;DHT22;4484;48.928;10.066;2024-01-06T10:03:29;3.50;99.90
8896;DHT22;4484;48.928;10.066;2024-01-06T10:05:56;3.60;99.90
8896;DHT22;4484;48.928;10.066;2024-01-06T10:08:27;3.60;99.90
8896;DHT22;4484;48.928;10.066;2024-01-06T10:10:54;3.60;99.90
8896;DHT22;4484;48.928;10.066;2024-01-06T10:13:21;3.60;99.90
8896;DHT22;4484;48.928;10.066;2024-01-06T10:15:48;3.70;99.90
8896;DHT22;4484;48.928;10.066;2024-01-06T10:18:15;3.70;99.90
8896;DHT22;4484;48.928;10.066;2024-01-06T10:20:44;3.70;99.90
8896;DHT22;4484;48.928;10.066;2024-01-06T10:23:13;3.70;99.90
8896;DHT22;4484;48.928;10.066;2024-01-06T10:25:39;3.70;99.90
8896;DHT22;4484;48.928;10.066;2024-01-06T10:28:12;3.80;99.90
8896;DHT22;4484;48.928;10.066;2024-01-06T10:30:41;3.80;99.90
8896;DHT22;4484;48.928;10.066;2024-01-06T10:33:10;3.80;99.90
8896;DHT22;4484;48.928;10.066;2024-01-06T10:35:37;3.80;99.90
8896;DHT22;4484;48.928;10.066;2024-01-06T10:38:04;3.80;99.90
8896;DHT22;4484;48.928;10.066;2024-01-06T10:40:31;3.90;99.90
8896;DHT22;4484;48.928;10.066;2024-01-06T10:42:59;3.90;99.90
8896;DHT22;4484;48.928;10.066;2024-01-06T10:45:28;3.90;99.90
8896;DHT22;4484;48.928;10.066;2024-01-06T10:47:55;4.00;99.90
8896;DHT22;4484;48.928;10.066;2024-01-06T10:50:23;4.00;99.90
8896;DHT22;4484;48.928;10.066;2024-01-06T10:52:50;4.00;99.90
8896;DHT22;4484;48.928;10.066;2024-01-06T10:55:18;4.10;99.90
8896;DHT22;4484;48.928;10.066;2024-01-06T10:57:47;4.20;99.90
8896;DHT22;4484;48.928;10.066;2024-01-06T11:00:15;4.30;99.90
8896;DHT22;4484;48.928;10.066;2024-01-06T11:02:43;4.40;99.90
8896;DHT22;4484;48.928;10.066;2024-01-06T11:05:10;4.50;99.90
8896;DHT22;4484;48.928;10.066;2024-01-06T11:07:39;4.60;99.90
8896;DHT22;4484;48.928;10.066;2024-01-06T11:10:15;4.60;99.90
8896;DHT22;4484;48.928;10.066;2024-01-06T11:12:43;4.70;99.90
8896;DHT22;4484;48.928;10.066;2024-01-06T11:15:10;4.70;99.90
8896;DHT22;4484;48.928;10.066;2024-01-06T11:17:57;4.70;99.90
8896;DHT22;4484;48.928;10.066;2024-01-06T11:20:26;4.70;99.90
8896;DHT22;4484;48.928;10.066;2024-01-06T11:22:53;4.70;99.90
8896;DHT22;4484;48.928;10.066;2024-01-06T11:25:21;4.70;99.90
8896;DHT22;4484;48.928;10.066;2024-01-06T11:27:49;4.60;99.90
8896;DHT22;4484;48.928;10.066;2024-01-06T11:30:25;4.60;99.90
8896;DHT22;4484;48.928;10.066;2024-01-06T11:32:53;4.60;99.90
8896;DHT22;4484;48.928;10.066;2024-01-06T11:35:22;4.60;99.90
8896;DHT22;4484;48.928;10.066;2024-01-06T11:37:52;4.60;99.90
8896;DHT22;4484;48.928;10.066;2024-01-06T11:45:26;4.40;99.90
8896;DHT22;4484;48.928;10.066;2024-01-06T11:47:58;4.40;99.90
8896;DHT22;4484;48.928;10.066;2024-01-06T11:50:27;4.30;99.90
8896;DHT22;4484;48.928;10.066;2024-01-06T11:52:55;4.20;99.90
8896;DHT22;4484;48.928;10.066;2024-01-06T11:55:22;4.20;99.90
8896;DHT22;4484;48.928;10.066;2024-01-06T11:57:49;4.20;99.90
8896;DHT22;4484;48.928;10.066;2024-01-06T12:00:17;4.20;99.90
8896;DHT22;4484;48.928;10.066;2024-01-06T12:02:44;4.20;99.90
8896;DHT22;4484;48.928;10.066;2024-01-06T12:05:18;4.20;99.90
8896;DHT22;4484;48.928;10.066;2024-01-06T12:07:54;4.30;99.90
8896;DHT22;4484;48.928;10.066;2024-01-06T12:10:22;4.40;99.90
8896;DHT22;4484;48.928;10.066;2024-01-06T12:13:07;4.40;99.90
8896;DHT22;4484;48.928;10.066;2024-01-06T12:15:38;4.40;99.90
8896;DHT22;4484;48.928;10.066;2024-01-06T12:18:07;4.40;99.90
8896;DHT22;4484;48.928;10.066;2024-01-06T12:20:34;4.40;99.90
8896;DHT22;4484;48.928;10.066;2024-01-06T12:23:01;4.40;99.90
8896;DHT22;4484;48.928;10.066;2024-01-06T12:25:30;4.30;99.90
8896;DHT22;4484;48.928;10.066;2024-01-06T12:28:05;4.30;99.90
8896;DHT22;4484;48.928;10.066;2024-01-06T12:30:33;4.20;99.90
8896;DHT22;4484;48.928;10.066;2024-01-06T12:33:02;4.20;99.90
8896;DHT22;4484;48.928;10.066;2024-01-06T12:35:29;4.20;99.90
8896;DHT22;4484;48.928;10.066;2024-01-06T12:37:56;4.20;99.90
8896;DHT22;4484;48.928;10.066;2024-01-06T12:40:23;4.30;99.90
8896;DHT22;4484;48.928;10.066;2024-01-06T12:42:50;4.30;99.90
8896;DHT22;4484;48.928;10.066;2024-01-06T12:45:17;4.30;99.90
8896;DHT22;4484;48.928;10.066;2024-01-06T12:47:44;4.30;99.90
8896;DHT22;4484;48.928;10.066;2024-01-06T12:50:11;4.30;99.90
8896;DHT22;4484;48.928;10.066;2024-01-06T12:52:38;4.30;99.90
8896;DHT22;4484;48.928;10.066;2024-01-06T12:55:07;4.20;99.90
8896;DHT22;4484;48.928;10.066;2024-01-06T12:57:35;4.20;99.90
8896;DHT22;4484;48.928;10.066;2024-01-06T13:00:03;4.20;99.90
8896;DHT22;4484;48.928;10.066;2024-01-06T13:02:30;4.20;99.90
8896;DHT22;4484;48.928;10.066;2024-01-06T13:04:56;4.10;99.90
8896;DHT22;4484;48.928;10.066;2024-01-06T13:07:24;4.10;99.90
8896;DHT22;4484;48.928;10.066;2024-01-06T13:09:51;4.10;99.90
8896;DHT22;4484;48.928;10.066;2024-01-06T13:12:18;4.10;99.90
8896;DHT22;4484;48.928;10.066;2024-01-06T13:14:45;4.00;99.90
8896;DHT22;4484;48.928;10.066;2024-01-06T13:17:16;4.00;99.90
8896;DHT22;4484;48.928;10.066;2024-01-06T13:19:43;4.00;99.90
8896;DHT22;4484;48.928;10.066;2024-01-06T13:22:10;4.00;99.90
8896;DHT22;4484;48.928;10.066;2024-01-06T13:24:37;4.10;99.90
8896;DHT22;4484;48.928;10.066;2024-01-06T13:27:04;4.10;99.90
8896;DHT22;4484;48.928;10.066;2024-01-06T13:29:32;4.20;99.90
8896;DHT22;4484;48.928;10.066;2024-01-06T13:31:58;4.20;99.90
8896;DHT22;4484;48.928;10.066;2024-01-06T13:34:26;4.30;99.90
8896;DHT22;4484;48.928;10.066;2024-01-06T13:36:53;4.30;99.90
8896;DHT22;4484;48.928;10.066;2024-01-06T13:39:23;4.30;99.90
8896;DHT22;4484;48.928;10.066;2024-01-06T13:41:50;4.40;99.90
8896;DHT22;4484;48.928;10.066;2024-01-06T13:44:17;4.40;99.90
8896;DHT22;4484;48.928;10.066;2024-01-06T13:46:44;4.40;99.90
8896;DHT22;4484;48.928;10.066;2024-01-06T13:49:12;4.50;99.90
8896;DHT22;4484;48.928;10.066;2024-01-06T13:51:40;4.50;99.90
8896;DHT22;4484;48.928;10.066;2024-01-06T13:54:07;4.50;99.90
8896;DHT22;4484;48.928;10.066;2024-01-06T13:56:34;4.50;99.90
8896;DHT22;4484;48.928;10.066;2024-01-06T13:59:01;4.50;99.90
8896;DHT22;4484;48.928;10.066;2024-01-06T14:01:28;4.50;99.90
8896;DHT22;4484;48.928;10.066;2024-01-06T14:03:55;4.50;99.90
8896;DHT22;4484;48.928;10.066;2024-01-06T14:06:28;4.50;99.90
8896;DHT22;4484;48.928;10.066;2024-01-06T14:08:58;4.50;99.90
8896;DHT22;4484;48.928;10.066;2024-01-06T14:11:26;4.50;99.90
8896;DHT22;4484;48.928;10.066;2024-01-06T14:13:53;4.50;99.90
8896;DHT22;4484;48.928;10.066;2024-01-06T14:16:20;4.50;99.90
8896;DHT22;4484;48.928;10.066;2024-01-06T14:18:47;4.50;99.90
8896;DHT22;4484;48.928;10.066;2024-01-06T14:21:15;4.40;99.90
8896;DHT22;4484;48.928;10.066;2024-01-06T14:23:46;4.40;99.90
8896;DHT22;4484;48.928;10.066;2024-01-06T14:26:15;4.40;99.90
8896;DHT22;4484;48.928;10.066;2024-01-06T14:28:43;4.40;99.90
8896;DHT22;4484;48.928;10.066;2024-01-06T14:31:10;4.40;99.90
8896;DHT22;4484;48.928;10.066;2024-01-06T14:33:37;4.30;99.90
8896;DHT22;4484;48.928;10.066;2024-01-06T14:36:04;4.30;99.90
8896;DHT22;4484;48.928;10.066;2024-01-06T14:38:31;4.40;99.90
8896;DHT22;4484;48.928;10.066;2024-01-06T14:40:58;4.30;99.90
8896;DHT22;4484;48.928;10.066;2024-01-06T14:43:25;4.30;99.90
8896;DHT22;4484;48.928;10.066;2024-01-06T14:45:52;4.30;99.90
8896;DHT22;4484;48.928;10.066;2024-01-06T14:48:19;4.30;99.90
8896;DHT22;4484;48.928;10.066;2024-01-06T14:50:46;4.30;99.90
8896;DHT22;4484;48.928;10.066;2024-01-06T14:53:14;4.30;99.90
8896;DHT22;4484;48.928;10.066;2024-01-06T14:55:41;4.20;99.90
8896;DHT22;4484;48.928;10.066;2024-01-06T14:58:08;4.20;99.90
8896;DHT22;4484;48.928;10.066;2024-01-06T15:00:36;4.20;99.90
8896;DHT22;4484;48.928;10.066;2024-01-06T15:03:03;4.20;99.90
8896;DHT22;4484;48.928;10.066;2024-01-06T15:05:30;4.10;99.90
8896;DHT22;4484;48.928;10.066;2024-01-06T15:07:58;4.10;99.90
8896;DHT22;4484;48.928;10.066;2024-01-06T15:10:24;4.10;99.90
8896;DHT22;4484;48.928;10.066;2024-01-06T15:12:51;4.10;99.90
8896;DHT22;4484;48.928;10.066;2024-01-06T15:15:18;4.00;99.90
8896;DHT22;4484;48.928;10.066;2024-01-06T15:17:46;4.00;99.90
8896;DHT22;4484;48.928;10.066;2024-01-06T15:20:13;4.00;99.90
8896;DHT22;4484;48.928;10.066;2024-01-06T15:22:39;3.90;99.90
8896;DHT22;4484;48.928;10.066;2024-01-06T15:25:07;3.90;99.90
8896;DHT22;4484;48.928;10.066;2024-01-06T15:27:34;3.90;99.90
8896;DHT22;4484;48.928;10.066;2024-01-06T15:30:01;3.80;99.90
8896;DHT22;4484;48.928;10.066;2024-01-06T15:32:34;3.80;99.90
8896;DHT22;4484;48.928;10.066;2024-01-06T15:35:01;3.80;99.90
8896;DHT22;4484;48.928;10.066;2024-01-06T15:37:30;3.70;99.90
8896;DHT22;4484;48.928;10.066;2024-01-06T15:39:57;3.70;99.90
8896;DHT22;4484;48.928;10.066;2024-01-06T15:42:25;3.70;99.90
8896;DHT22;4484;48.928;10.066;2024-01-06T15:44:52;3.60;99.90
8896;DHT22;4484;48.928;10.066;2024-01-06T15:47:19;3.60;99.90
8896;DHT22;4484;48.928;10.066;2024-01-06T15:49:46;3.60;99.90
8896;DHT22;4484;48.928;10.066;2024-01-06T15:52:13;3.60;99.90
8896;DHT22;4484;48.928;10.066;2024-01-06T15:54:40;3.60;99.90
8896;DHT22;4484;48.928;10.066;2024-01-06T15:57:07;3.60;99.90
8896;DHT22;4484;48.928;10.066;2024-01-06T15:59:33;3.50;99.90
8896;DHT22;4484;48.928;10.066;2024-01-06T16:02:00;3.50;99.90
8896;DHT22;4484;48.928;10.066;2024-01-06T16:04:27;3.50;99.90
8896;DHT22;4484;48.928;10.066;2024-01-06T16:06:54;3.50;99.90
8896;DHT22;4484;48.928;10.066;2024-01-06T16:09:21;3.50;99.90